Time;durP1;ratioP1;P1;durP2;ratioP2;P2;SDS_P1;SDS_P2;PMS_P1;PMS_P2;Temp;Humidity;BMP_temperature;BMP_pressure;BME280_temperature;BME280_humidity;BME280_pressure;Samples;Min_cycle;Max_cycle;Signal;HPM_P1;HPM_P2
2023/04/27 00:00:29;;;;;;;10.40;5.10;;;;;;;3.84;100.00;101983.91;5021310;28;20309;-69
2023/04/27 00:02:54;;;;;;;10.67;4.63;;;;;;;3.81;100.00;101988.75;5022754;28;20587;-70
2023/04/27 00:05:20;;;;;;;9.97;5.90;;;;;;;3.68;100.00;101983.69;5028830;28;20563;-70
2023/04/27 00:07:45;;;;;;;11.70;5.87;;;;;;;3.69;100.00;101985.41;5027783;28;20206;-68
2023/04/27 00:10:11;;;;;;;7.23;4.07;;;;;;;3.64;100.00;101986.78;5029981;28;20589;-71
2023/04/27 00:12:37;;;;;;;8.07;3.77;;;;;;;3.55;100.00;101988.72;5027140;28;20190;-70
2023/04/27 00:15:04;;;;;;;9.83;3.30;;;;;;;3.44;100.00;101978.66;5021820;28;20194;-70
2023/04/27 00:17:29;;;;;;;8.47;3.87;;;;;;;3.38;100.00;101986.75;5007133;28;20282;-70
2023/04/27 00:19:55;;;;;;;6.30;3.60;;;;;;;3.51;100.00;101991.84;5023070;28;20318;-71
2023/04/27 00:22:21;;;;;;;6.07;3.80;;;;;;;3.49;100.00;101990.00;5026519;28;20552;-68
2023/04/27 00:24:46;;;;;;;9.00;3.93;;;;;;;3.45;100.00;101988.91;5028476;28;20197;-69
2023/04/27 00:27:12;;;;;;;7.03;4.10;;;;;;;3.52;100.00;101975.00;5009365;28;20205;-70
2023/04/27 00:29:41;;;;;;;11.00;4.03;;;;;;;3.60;100.00;101982.31;5023059;28;20893;-69
2023/04/27 00:32:10;;;;;;;13.00;4.23;;;;;;;3.62;100.00;101984.94;5007973;28;20285;-70
2023/04/27 00:34:36;;;;;;;7.53;3.70;;;;;;;3.52;100.00;101978.41;5006576;28;20238;-71
2023/04/27 00:37:03;;;;;;;9.43;4.00;;;;;;;3.47;100.00;101973.81;5024492;28;20378;-71
2023/04/27 00:39:29;;;;;;;10.60;4.60;;;;;;;3.54;100.00;101978.50;5021888;28;20202;-69
2023/04/27 00:41:55;;;;;;;8.07;3.67;;;;;;;3.43;100.00;101981.97;5012611;28;20857;-69
2023/04/27 00:44:25;;;;;;;7.03;4.30;;;;;;;3.41;100.00;101975.94;5011440;28;20300;-68
2023/04/27 00:46:52;;;;;;;10.47;4.43;;;;;;;3.48;100.00;101971.38;5021458;28;20230;-69
2023/04/27 00:49:19;;;;;;;13.83;5.93;;;;;;;3.51;100.00;101975.78;5025493;28;20329;-68
2023/04/27 00:51:46;;;;;;;9.67;4.67;;;;;;;3.48;100.00;101968.84;5028085;28;20739;-68
2023/04/27 00:54:14;;;;;;;8.17;4.57;;;;;;;3.45;100.00;101975.38;5026251;28;20744;-70
2023/04/27 00:56:40;;;;;;;12.10;5.00;;;;;;;3.41;100.00;101976.81;5006296;28;20249;-67
2023/04/27 00:59:06;;;;;;;10.10;4.47;;;;;;;3.30;100.00;101975.25;5012190;28;20222;-68
2023/04/27 01:01:32;;;;;;;8.13;4.70;;;;;;;3.22;100.00;101976.38;5009753;28;20197;-69
2023/04/27 01:03:57;;;;;;;6.93;4.03;;;;;;;3.20;100.00;101979.59;5022536;28;23665;-69
2023/04/27 01:06:23;;;;;;;7.50;4.07;;;;;;;3.18;100.00;101984.53;5025357;28;20190;-70
2023/04/27 01:08:48;;;;;;;9.83;3.90;;;;;;;3.15;100.00;101983.47;5027070;28;20612;-70
2023/04/27 01:11:14;;;;;;;7.20;4.37;;;;;;;3.14;100.00;101982.59;5010773;28;20194;-70
2023/04/27 01:13:40;;;;;;;6.57;4.23;;;;;;;3.00;100.00;101985.88;5023306;28;20202;-70
2023/04/27 01:16:06;;;;;;;9.33;4.37;;;;;;;2.81;100.00;101997.16;5013203;28;20213;-69
2023/04/27 01:18:32;;;;;;;11.73;4.20;;;;;;;2.82;100.00;101984.63;5022438;28;20241;-70
2023/04/27 01:20:59;;;;;;;6.40;4.10;;;;;;;2.73;100.00;101998.25;5028690;28;20198;-71
2023/04/27 01:23:24;;;;;;;6.03;4.03;;;;;;;2.76;100.00;101995.97;5026195;28;20187;-70
2023/04/27 01:25:50;;;;;;;7.33;4.47;;;;;;;2.73;100.00;101991.56;5023751;28;20276;-69
2023/04/27 01:28:15;;;;;;;6.83;3.83;;;;;;;2.69;100.00;101999.72;5006927;28;20248;-68
2023/04/27 01:30:41;;;;;;;6.23;4.10;;;;;;;2.54;100.00;102003.72;5007210;28;20660;-69
2023/04/27 01:33:06;;;;;;;6.97;3.93;;;;;;;2.62;100.00;102001.72;5022033;28;20226;-70
2023/04/27 01:35:32;;;;;;;8.10;4.30;;;;;;;2.63;100.00;102006.88;4993028;28;20233;-69
2023/04/27 01:37:59;;;;;;;12.53;4.30;;;;;;;2.62;100.00;102006.78;5009176;28;20240;-68
2023/04/27 01:40:24;;;;;;;8.87;4.57;;;;;;;2.58;100.00;102009.84;5006396;28;20719;-69
2023/04/27 01:42:50;;;;;;;10.67;5.03;;;;;;;2.53;100.00;102013.72;5005046;28;20267;-69
2023/04/27 01:45:15;;;;;;;8.33;4.40;;;;;;;2.46;100.00;102014.03;5022134;28;20913;-69
2023/04/27 01:47:41;;;;;;;6.23;4.30;;;;;;;2.51;100.00;102017.75;5018661;28;20301;-69
2023/04/27 01:50:07;;;;;;;7.20;3.90;;;;;;;2.51;100.00;102011.06;5011936;28;20571;-69
2023/04/27 01:52:32;;;;;;;12.23;5.43;;;;;;;2.53;100.00;102019.63;5009862;28;20194;-70
2023/04/27 01:54:58;;;;;;;8.07;4.20;;;;;;;2.57;100.00;102014.03;5026330;28;20657;-70
2023/04/27 01:57:24;;;;;;;9.13;4.30;;;;;;;2.52;100.00;102019.56;5008521;28;20679;-69
2023/04/27 01:59:49;;;;;;;11.70;5.20;;;;;;;2.60;100.00;102013.34;5012610;28;20208;-69
2023/04/27 02:02:15;;;;;;;10.70;5.37;;;;;;;2.68;100.00;102019.81;5013830;28;20292;-68
2023/04/27 02:04:41;;;;;;;11.17;5.57;;;;;;;2.66;100.00;102026.44;5025548;28;20733;-69
2023/04/27 02:07:07;;;;;;;8.27;5.10;;;;;;;2.63;100.00;102027.09;5014995;28;20201;-72
2023/04/27 02:09:33;;;;;;;8.07;4.70;;;;;;;2.59;100.00;102027.66;5011461;28;20222;-69
2023/04/27 02:12:01;;;;;;;11.13;5.73;;;;;;;2.52;100.00;102033.03;5014050;28;20259;-70
2023/04/27 02:14:26;;;;;;;7.83;4.90;;;;;;;2.45;100.00;102040.97;5032180;28;20236;-69
2023/04/27 02:16:52;;;;;;;9.50;5.03;;;;;;;2.43;100.00;102047.56;5023905;28;20668;-67
2023/04/27 02:19:17;;;;;;;8.87;4.87;;;;;;;2.37;100.00;102044.59;5002696;28;20210;-69
2023/04/27 02:21:43;;;;;;;9.90;4.97;;;;;;;2.36;100.00;102052.97;5010944;28;20191;-70
2023/04/27 02:24:08;;;;;;;10.27;5.30;;;;;;;2.27;100.00;102052.31;5023834;28;20191;-70
2023/04/27 02:26:34;;;;;;;9.07;4.77;;;;;;;2.31;100.00;102058.44;5026790;28;20193;-70
2023/04/27 02:29:02;;;;;;;6.73;4.80;;;;;;;2.29;100.00;102058.34;5023690;28;20727;-70
2023/04/27 02:31:28;;;;;;;12.17;4.90;;;;;;;2.37;100.00;102051.28;5024379;28;20826;-71
2023/04/27 02:33:54;;;;;;;11.20;5.63;;;;;;;2.36;100.00;102050.44;5018434;28;20246;-68
2023/04/27 02:36:23;;;;;;;10.10;5.20;;;;;;;2.28;100.00;102054.06;5030803;28;20190;-69
2023/04/27 02:38:48;;;;;;;11.27;4.97;;;;;;;2.38;100.00;102055.56;5005463;28;20602;-69
2023/04/27 02:41:14;;;;;;;12.13;5.40;;;;;;;2.36;100.00;102052.06;5010637;28;20203;-68
2023/04/27 02:43:40;;;;;;;10.13;5.20;;;;;;;2.40;100.00;102056.56;5026818;28;20198;-69
2023/04/27 02:46:05;;;;;;;10.50;5.40;;;;;;;2.41;100.00;102064.28;5023452;28;20194;-67
2023/04/27 02:48:31;;;;;;;11.83;5.37;;;;;;;2.40;100.00;102054.06;5009114;28;20210;-68
2023/04/27 02:50:56;;;;;;;8.63;5.37;;;;;;;2.41;100.00;102053.28;5009916;28;20245;-69
2023/04/27 02:53:22;;;;;;;12.67;6.20;;;;;;;2.62;100.00;102049.75;5021726;28;20194;-68
2023/04/27 02:55:48;;;;;;;10.07;5.17;;;;;;;2.65;100.00;102052.47;5010483;28;20747;-71
2023/04/27 02:58:14;;;;;;;15.47;5.97;;;;;;;2.65;100.00;102055.00;5010689;28;20727;-70
2023/04/27 03:00:40;;;;;;;12.53;6.47;;;;;;;2.59;100.00;102047.00;5019735;28;20190;-71
2023/04/27 03:03:06;;;;;;;10.70;5.80;;;;;;;2.58;100.00;102050.28;5023082;28;20199;-70
2023/04/27 03:05:32;;;;;;;13.20;6.57;;;;;;;2.57;100.00;102046.03;5023882;28;20222;-71
2023/04/27 03:07:58;;;;;;;9.13;6.07;;;;;;;2.56;100.00;102041.72;5024304;28;20242;-70
2023/04/27 03:10:23;;;;;;;11.33;5.97;;;;;;;2.57;100.00;102041.81;5010010;28;20293;-69
2023/04/27 03:12:49;;;;;;;10.63;5.70;;;;;;;2.56;100.00;102039.19;5025880;28;20197;-69
2023/04/27 03:15:14;;;;;;;11.43;6.23;;;;;;;2.63;100.00;102049.84;5010325;28;20198;-70
2023/04/27 03:17:40;;;;;;;11.27;6.33;;;;;;;2.68;100.00;102043.47;5024325;28;20213;-69
2023/04/27 03:20:08;;;;;;;11.97;6.63;;;;;;;2.74;100.00;102041.34;5019203;28;20234;-70
2023/04/27 03:22:37;;;;;;;12.43;6.53;;;;;;;2.75;100.00;102045.63;5014478;28;20232;-69
2023/04/27 03:25:03;;;;;;;11.47;6.27;;;;;;;2.76;100.00;102054.13;5012034;28;20210;-69
2023/04/27 03:27:28;;;;;;;11.30;6.50;;;;;;;2.72;100.00;102053.00;5013175;28;20605;-70
2023/04/27 03:29:54;;;;;;;10.97;6.43;;;;;;;2.73;100.00;102052.25;5021536;28;20576;-69
2023/04/27 03:32:20;;;;;;;12.83;6.33;;;;;;;2.75;100.00;102057.41;5024392;28;20641;-70
2023/04/27 03:34:45;;;;;;;14.87;6.83;;;;;;;2.81;100.00;102052.78;5009875;28;20194;-70
2023/04/27 03:37:11;;;;;;;11.33;6.43;;;;;;;2.81;100.00;102058.69;5029839;28;20711;-69
2023/04/27 03:39:36;;;;;;;14.17;7.13;;;;;;;2.83;100.00;102057.16;5022746;28;20294;-69
2023/04/27 03:42:02;;;;;;;12.87;6.40;;;;;;;2.80;100.00;102051.88;5006924;28;20615;-69
2023/04/27 03:44:29;;;;;;;12.93;6.57;;;;;;;2.77;100.00;102054.22;5022513;28;20206;-69
2023/04/27 03:46:55;;;;;;;12.27;6.63;;;;;;;2.78;100.00;102060.13;5019270;28;20195;-68
2023/04/27 03:49:21;;;;;;;10.87;5.87;;;;;;;2.74;100.00;102060.69;5021515;28;20292;-69
2023/04/27 03:51:47;;;;;;;8.63;5.83;;;;;;;2.69;100.00;102059.50;5008851;28;20194;-68
2023/04/27 03:54:13;;;;;;;15.13;6.63;;;;;;;2.69;100.00;102067.09;5014917;28;20195;-68
2023/04/27 03:56:39;;;;;;;8.43;5.67;;;;;;;2.68;100.00;102061.16;5009192;28;20186;-68
2023/04/27 03:59:05;;;;;;;10.30;5.90;;;;;;;2.67;100.00;102059.38;5021523;28;20214;-69
2023/04/27 04:01:32;;;;;;;11.63;6.20;;;;;;;2.64;100.00;102065.88;5009171;28;20202;-69
2023/04/27 04:03:58;;;;;;;12.10;6.50;;;;;;;2.64;100.00;102069.31;5019181;28;20734;-70
2023/04/27 04:06:23;;;;;;;12.03;6.70;;;;;;;2.58;100.00;102068.00;5017384;28;20219;-67
2023/04/27 04:08:49;;;;;;;16.03;6.60;;;;;;;2.61;100.00;102070.72;5023849;28;20214;-70
2023/04/27 04:11:15;;;;;;;11.27;6.00;;;;;;;2.56;100.00;102072.94;5006171;28;20258;-71
2023/04/27 04:13:41;;;;;;;10.07;5.97;;;;;;;2.54;100.00;102071.97;5022763;28;20248;-70
2023/04/27 04:16:08;;;;;;;11.20;5.40;;;;;;;2.46;100.00;102072.16;4980895;28;20191;-69
2023/04/27 04:18:35;;;;;;;9.70;5.93;;;;;;;2.41;100.00;102070.97;5010257;28;20217;-70
2023/04/27 04:21:01;;;;;;;12.60;5.80;;;;;;;2.41;100.00;102074.38;5009287;28;20207;-68
2023/04/27 04:23:27;;;;;;;11.60;6.20;;;;;;;2.47;100.00;102077.34;5013829;28;20552;-69
2023/04/27 04:25:55;;;;;;;12.37;5.90;;;;;;;2.36;100.00;102078.22;5007809;28;20190;-69
2023/04/27 04:28:22;;;;;;;9.80;6.20;;;;;;;2.35;100.00;102084.03;5005411;28;20265;-70
2023/04/27 04:30:48;;;;;;;13.23;6.27;;;;;;;2.36;100.00;102084.91;5012150;28;20655;-70
2023/04/27 04:33:15;;;;;;;11.47;6.17;;;;;;;2.36;100.00;102085.81;5019977;28;20198;-70
2023/04/27 04:35:42;;;;;;;12.53;6.33;;;;;;;2.41;100.00;102084.50;5008267;28;20218;-70
2023/04/27 04:38:09;;;;;;;10.77;6.20;;;;;;;2.46;100.00;102080.63;5003112;28;20289;-68
2023/04/27 04:40:37;;;;;;;13.17;6.47;;;;;;;2.49;100.00;102090.94;5022211;28;20198;-69
2023/04/27 04:43:03;;;;;;;12.33;6.03;;;;;;;2.53;100.00;102092.06;5019494;28;20199;-69
2023/04/27 04:45:29;;;;;;;12.20;6.60;;;;;;;2.58;100.00;102098.31;5010192;28;20187;-69
2023/04/27 04:47:56;;;;;;;14.00;7.17;;;;;;;2.59;100.00;102089.97;5017111;28;20583;-70
2023/04/27 04:50:22;;;;;;;13.50;6.53;;;;;;;2.64;100.00;102092.06;5011408;28;20215;-70
2023/04/27 04:52:49;;;;;;;11.97;6.50;;;;;;;2.73;100.00;102091.81;5010644;28;20186;-68
2023/04/27 04:55:15;;;;;;;11.70;6.73;;;;;;;2.78;100.00;102096.44;5022934;28;20676;-69
2023/04/27 04:57:40;;;;;;;10.90;7.13;;;;;;;2.82;100.00;102103.47;5021801;28;20194;-68
2023/04/27 05:00:15;;;;;;;17.97;9.23;;;;;;;2.86;100.00;102104.53;5009143;28;20212;-70
2023/04/27 05:02:40;;;;;;;12.50;6.97;;;;;;;2.92;100.00;102104.97;5020003;28;20221;-69
2023/04/27 05:05:07;;;;;;;12.00;6.60;;;;;;;2.94;100.00;102104.28;5017106;28;20198;-69
2023/04/27 05:07:32;;;;;;;14.10;6.83;;;;;;;2.96;100.00;102109.47;5020784;28;20668;-71
2023/04/27 05:09:58;;;;;;;12.17;7.07;;;;;;;3.01;100.00;102106.50;5021208;28;20221;-70
2023/04/27 05:12:24;;;;;;;16.03;6.07;;;;;;;3.22;100.00;102115.53;5025293;28;20186;-70
2023/04/27 05:14:52;;;;;;;13.60;6.40;;;;;;;3.31;100.00;102111.13;5018891;28;20207;-70
2023/04/27 05:17:18;;;;;;;11.93;6.27;;;;;;;3.52;100.00;102114.22;5021341;28;20281;-69
2023/04/27 05:19:43;;;;;;;11.30;6.50;;;;;;;3.57;100.00;102112.88;5014834;28;20266;-69
2023/04/27 05:22:09;;;;;;;14.60;7.20;;;;;;;3.53;100.00;102119.41;5020174;28;20195;-69
2023/04/27 05:24:35;;;;;;;11.40;6.57;;;;;;;3.55;100.00;102116.97;5025417;28;20337;-70
2023/04/27 05:27:01;;;;;;;9.63;5.73;;;;;;;3.56;100.00;102119.63;5009011;28;20209;-70
2023/04/27 05:29:26;;;;;;;12.13;6.10;;;;;;;3.63;100.00;102114.16;5022397;28;20256;-69
2023/04/27 05:31:52;;;;;;;14.73;6.60;;;;;;;4.02;100.00;102115.94;5017439;28;20277;-71
2023/04/27 05:34:18;;;;;;;11.87;5.87;;;;;;;4.36;100.00;102114.78;5019046;28;20186;-70
2023/04/27 05:36:45;;;;;;;9.67;5.83;;;;;;;4.58;100.00;102111.22;5017609;28;20592;-70
2023/04/27 05:39:11;;;;;;;11.67;5.73;;;;;;;4.74;100.00;102113.91;5020393;28;20210;-69
2023/04/27 05:41:37;;;;;;;9.63;4.80;;;;;;;4.77;100.00;102098.91;5022641;28;20194;-69
2023/04/27 05:44:02;;;;;;;11.53;5.03;;;;;;;4.90;100.00;102103.94;5017722;28;20248;-69
2023/04/27 05:46:28;;;;;;;8.60;5.13;;;;;;;4.99;100.00;102112.13;5020658;28;20198;-70
2023/04/27 05:48:53;;;;;;;8.80;5.20;;;;;;;5.06;100.00;102108.31;5014041;28;20210;-70
2023/04/27 05:51:19;;;;;;;7.87;5.77;;;;;;;5.11;100.00;102112.88;5018673;28;20194;-68
2023/04/27 05:53:45;;;;;;;11.83;5.73;;;;;;;5.06;100.00;102105.78;5023566;28;20769;-70
2023/04/27 05:56:10;;;;;;;9.80;5.23;;;;;;;5.10;100.00;102112.78;5019468;28;20590;-69
2023/04/27 05:58:36;;;;;;;11.47;5.80;;;;;;;5.17;100.00;102110.72;5021424;28;20212;-70
2023/04/27 06:01:05;;;;;;;8.13;5.03;;;;;;;5.32;100.00;102115.84;5020789;28;20206;-68
2023/04/27 06:03:30;;;;;;;10.00;5.47;;;;;;;5.69;100.00;102113.06;5018440;28;20214;-70
2023/04/27 06:05:58;;;;;;;7.13;5.07;;;;;;;5.93;100.00;102111.09;5014513;28;20679;-69
2023/04/27 06:08:23;;;;;;;10.33;4.37;;;;;;;5.92;100.00;102110.22;5023115;28;20305;-70
2023/04/27 06:10:50;;;;;;;9.13;4.83;;;;;;;6.11;100.00;102109.59;5007129;28;20239;-69
2023/04/27 06:13:16;;;;;;;11.13;4.73;;;;;;;6.11;100.00;102117.22;5020004;28;20683;-70
2023/04/27 06:15:41;;;;;;;7.83;4.17;;;;;;;6.31;100.00;102120.13;5019984;28;20217;-70
2023/04/27 06:18:07;;;;;;;8.50;4.20;;;;;;;6.43;100.00;102110.66;5018554;28;20282;-70
2023/04/27 06:20:32;;;;;;;8.33;4.40;;;;;;;6.48;100.00;102103.25;5019216;28;20194;-68
2023/04/27 06:23:00;;;;;;;6.87;4.57;;;;;;;6.64;100.00;102104.19;5024156;28;20192;-69
2023/04/27 06:25:27;;;;;;;7.00;3.97;;;;;;;6.77;100.00;102103.22;5023238;28;20195;-70
2023/04/27 06:27:54;;;;;;;8.23;3.87;;;;;;;7.01;100.00;102100.28;5019462;28;20254;-69
2023/04/27 06:30:19;;;;;;;9.63;4.50;;;;;;;7.10;100.00;102088.06;5020038;28;20214;-68
2023/04/27 06:32:44;;;;;;;9.27;4.40;;;;;;;7.18;100.00;102099.53;5014362;28;20391;-69
2023/04/27 06:35:10;;;;;;;12.33;4.07;;;;;;;7.23;100.00;102084.50;5016801;28;20289;-70
2023/04/27 06:37:35;;;;;;;8.00;4.10;;;;;;;7.41;100.00;102077.81;5019469;28;20533;-67
2023/04/27 06:40:02;;;;;;;7.00;3.80;;;;;;;7.53;100.00;102064.03;5023470;28;20215;-70
2023/04/27 06:42:28;;;;;;;9.90;4.03;;;;;;;7.69;100.00;102053.78;5021750;28;20202;-69
2023/04/27 06:44:55;;;;;;;8.87;4.17;;;;;;;7.82;100.00;102038.31;5010066;28;20197;-70
2023/04/27 06:47:21;;;;;;;6.10;3.80;;;;;;;8.02;100.00;102040.16;5020341;28;20937;-71
2023/04/27 06:49:46;;;;;;;10.03;4.13;;;;;;;8.37;100.00;102060.63;5017267;28;20302;-70
2023/04/27 06:52:12;;;;;;;6.93;3.93;;;;;;;8.56;100.00;102018.97;5020014;28;20212;-70
2023/04/27 06:54:37;;;;;;;4.97;3.83;;;;;;;8.72;100.00;101980.56;5027860;28;20217;-69
2023/04/27 06:57:03;;;;;;;5.37;3.60;;;;;;;8.24;100.00;101994.50;5016871;28;20202;-72
2023/04/27 06:59:28;;;;;;;8.97;3.50;;;;;;;8.29;100.00;101998.13;5023240;28;20265;-70
2023/04/27 07:01:54;;;;;;;6.70;3.30;;;;;;;8.57;100.00;101959.47;5023226;28;20191;-71
2023/04/27 07:04:19;;;;;;;4.63;3.57;;;;;;;8.76;100.00;101945.00;5015156;28;20190;-71
2023/04/27 07:06:45;;;;;;;5.13;3.67;;;;;;;8.87;100.00;101955.72;5023321;28;20198;-70
2023/04/27 07:09:11;;;;;;;6.77;4.27;;;;;;;8.48;100.00;101980.31;5022775;28;20222;-71
2023/04/27 07:11:36;;;;;;;9.97;4.60;;;;;;;8.94;100.00;101970.50;5025375;28;20194;-71
2023/04/27 07:14:01;;;;;;;7.87;4.10;;;;;;;9.18;100.00;101956.22;5024677;28;20199;-70
2023/04/27 07:16:27;;;;;;;7.87;3.83;;;;;;;9.37;100.00;101910.19;5025063;28;20201;-69
2023/04/27 07:18:52;;;;;;;6.60;3.87;;;;;;;9.64;100.00;101867.84;5004747;28;20252;-68
2023/04/27 07:21:18;;;;;;;9.57;3.77;;;;;;;8.78;100.00;101900.00;5004509;28;20291;-69
2023/04/27 07:23:45;;;;;;;5.60;3.77;;;;;;;8.74;100.00;101940.66;5026053;28;20249;-71
2023/04/27 07:26:10;;;;;;;8.03;3.53;;;;;;;9.02;100.00;101926.59;5027075;28;20209;-68
2023/04/27 07:28:37;;;;;;;7.30;3.30;;;;;;;8.79;100.00;101908.53;5025781;28;20210;-69
2023/04/27 07:31:05;;;;;;;6.67;3.50;;;;;;;9.52;100.00;101927.03;5026693;28;20911;-69
2023/04/27 07:33:32;;;;;;;5.53;2.70;;;;;;;9.77;100.00;101849.59;5025828;28;20256;-70
2023/04/27 07:35:58;;;;;;;7.40;3.00;;;;;;;9.56;100.00;101859.88;5024442;28;20256;-69
2023/04/27 07:38:24;;;;;;;7.67;3.20;;;;;;;9.11;100.00;101841.78;5026620;28;20210;-70
2023/04/27 07:40:50;;;;;;;4.97;2.93;;;;;;;9.91;100.00;101831.41;5023154;28;20687;-69
2023/04/27 07:43:17;;;;;;;9.20;3.57;;;;;;;10.33;100.00;101815.09;5020959;28;20203;-68
2023/04/27 07:45:42;;;;;;;6.37;3.27;;;;;;;10.05;100.00;101789.31;5020370;28;20199;-70
2023/04/27 07:48:08;;;;;;;7.83;2.70;;;;;;;10.50;100.00;101739.75;5019087;28;20270;-70
2023/04/27 07:50:34;;;;;;;8.13;3.10;;;;;;;10.76;100.00;101682.56;5017850;28;20305;-69
2023/04/27 07:52:59;;;;;;;6.63;2.87;;;;;;;10.69;100.00;101678.06;5014289;28;20198;-69
2023/04/27 07:55:25;;;;;;;5.87;3.07;;;;;;;11.02;100.00;101645.81;5022751;28;20199;-70
2023/04/27 07:57:52;;;;;;;3.87;2.50;;;;;;;11.05;100.00;101621.97;5018291;28;20213;-71
2023/04/27 08:00:18;;;;;;;4.20;2.50;;;;;;;10.61;100.00;101659.03;5026925;28;20210;-67
2023/04/27 08:02:44;;;;;;;4.53;2.33;;;;;;;11.13;100.00;101623.06;5015239;28;20198;-69
2023/04/27 08:05:09;;;;;;;6.07;2.40;;;;;;;10.60;100.00;101612.91;5018334;28;20253;-71
2023/04/27 08:07:35;;;;;;;5.20;2.50;;;;;;;10.53;100.00;101673.28;5017196;28;20199;-69
2023/04/27 08:10:00;;;;;;;5.27;2.47;;;;;;;11.09;100.00;101634.03;5026326;28;20307;-69
2023/04/27 08:12:26;;;;;;;5.07;2.40;;;;;;;10.76;100.00;101607.41;5017087;28;20198;-70
2023/04/27 08:14:51;;;;;;;5.20;2.23;;;;;;;10.51;99.80;101592.97;5023353;28;20289;-69
2023/04/27 08:17:17;;;;;;;5.10;1.80;;;;;;;10.75;92.00;101524.59;5022948;28;20198;-70
2023/04/27 08:19:43;;;;;;;4.30;2.10;;;;;;;11.27;82.64;101450.88;5017705;28;20219;-70
2023/04/27 08:22:08;;;;;;;4.07;2.07;;;;;;;11.27;82.54;101438.06;5016895;28;20212;-69
2023/04/27 08:24:35;;;;;;;7.90;2.20;;;;;;;11.64;75.81;101389.44;5023985;28;20595;-69
2023/04/27 08:27:02;;;;;;;5.07;2.17;;;;;;;12.01;77.81;101393.72;5010921;28;20417;-71
2023/04/27 08:29:27;;;;;;;3.27;2.10;;;;;;;11.61;79.89;101427.84;5026142;28;20229;-70
2023/04/27 08:31:53;;;;;;;4.67;2.10;;;;;;;11.72;79.57;101440.94;5015557;28;20595;-71
2023/04/27 08:34:18;;;;;;;5.63;1.80;;;;;;;12.19;75.93;101420.69;5020126;28;20190;-69
2023/04/27 08:36:44;;;;;;;3.23;1.90;;;;;;;12.46;72.27;101372.47;5020667;28;20777;-71
2023/04/27 08:39:09;;;;;;;4.40;2.03;;;;;;;12.69;71.50;101378.94;5015203;28;20221;-68
2023/04/27 08:41:35;;;;;;;4.20;2.13;;;;;;;12.83;65.84;101336.38;5021644;28;20209;-68
2023/04/27 08:44:00;;;;;;;7.33;1.97;;;;;;;12.54;64.33;101337.50;5020407;28;20297;-71
2023/04/27 08:46:26;;;;;;;4.50;2.20;;;;;;;11.98;68.58;101394.53;5019996;28;20193;-69
2023/04/27 08:48:52;;;;;;;2.97;1.90;;;;;;;11.81;74.57;101451.44;5017618;28;20855;-70
2023/04/27 08:51:19;;;;;;;3.20;2.00;;;;;;;12.46;68.08;101410.13;5016535;28;20202;-70
2023/04/27 08:53:51;;;;;;;5.97;2.10;;;;;;;12.80;67.01;101392.84;5022492;28;20202;-70
2023/04/27 08:56:18;;;;;;;5.70;2.20;;;;;;;13.31;62.48;101345.78;5020173;28;20250;-71
2023/04/27 08:58:44;;;;;;;5.10;2.20;;;;;;;12.61;61.42;101367.63;5025335;28;20691;-69
2023/04/27 09:01:09;;;;;;;11.43;6.37;;;;;;;13.13;67.84;101433.78;5019868;28;20195;-71
2023/04/27 09:03:35;;;;;;;3.83;3.10;;;;;;;12.95;64.81;101405.13;5018092;28;20747;-70
2023/04/27 09:06:05;;;;;;;4.97;2.47;;;;;;;12.74;64.62;101422.69;5019874;28;20202;-72
2023/04/27 09:08:44;;;;;;;2.33;1.67;;;;;;;12.51;60.86;101429.06;5017334;28;20242;-70
2023/04/27 09:11:10;;;;;;;3.60;2.00;;;;;;;12.40;65.83;101503.31;5025091;28;20567;-71
2023/04/27 09:13:43;;;;;;;2.87;1.70;;;;;;;12.13;66.39;101512.09;5000713;28;20205;-69
2023/04/27 09:16:12;;;;;;;3.10;1.90;;;;;;;11.90;65.60;101514.09;5025994;28;20617;-70
2023/04/27 09:18:41;;;;;;;4.60;1.93;;;;;;;12.16;65.90;101515.59;5024500;28;21868;-71
2023/04/27 09:21:06;;;;;;;4.07;2.10;;;;;;;11.80;64.71;101519.81;5016925;28;20206;-68
2023/04/27 09:23:37;;;;;;;3.33;1.90;;;;;;;12.14;66.67;101542.06;5005899;28;20197;-69
2023/04/27 09:26:06;;;;;;;3.37;2.00;;;;;;;12.13;64.06;101528.34;5017581;28;20668;-71
2023/04/27 09:28:33;;;;;;;3.33;1.90;;;;;;;12.16;65.22;101531.00;5020153;28;20210;-69
2023/04/27 09:31:00;;;;;;;6.13;2.17;;;;;;;12.11;65.45;101540.28;5007990;28;20201;-70
2023/04/27 09:33:34;;;;;;;4.23;2.27;;;;;;;12.34;66.26;101546.84;5006563;28;20205;-72
2023/04/27 09:36:05;;;;;;;4.90;2.10;;;;;;;13.62;61.70;101498.13;5018502;28;20212;-72
2023/04/27 09:38:30;;;;;;;2.83;2.00;;;;;;;13.54;58.89;101479.09;5022842;28;20350;-72
2023/04/27 09:40:56;;;;;;;4.70;1.93;;;;;;;13.47;57.71;101481.53;5026416;28;20281;-70
2023/04/27 09:43:23;;;;;;;2.93;2.00;;;;;;;12.73;57.63;101501.47;5018162;28;20687;-72
2023/04/27 09:45:50;;;;;;;3.67;2.00;;;;;;;12.77;55.18;101471.59;5020372;28;20608;-69
2023/04/27 09:48:17;;;;;;;3.57;1.90;;;;;;;12.72;54.41;101473.19;5022576;28;20223;-70
2023/04/27 09:50:45;;;;;;;4.20;2.10;;;;;;;12.77;55.82;101503.28;5019269;28;20269;-72
2023/04/27 09:53:13;;;;;;;2.93;1.87;;;;;;;12.79;58.09;101547.88;5021440;28;20194;-71
2023/04/27 09:56:00;;;;;;;4.63;1.97;;;;;;;12.62;52.20;101477.25;5023605;28;20278;-71
2023/04/27 09:58:40;;;;;;;4.90;2.37;;;;;;;13.42;53.11;101498.59;5024407;28;20225;-69
2023/04/27 10:01:27;;;;;;;2.93;1.87;;;;;;;14.19;51.31;101491.34;5019009;28;20205;-70
2023/04/27 10:04:11;;;;;;;4.73;1.70;;;;;;;14.56;46.51;101497.94;5018682;28;20198;-72
2023/04/27 10:06:57;;;;;;;6.43;2.00;;;;;;;15.09;49.01;101575.16;5018658;28;20205;-70
2023/04/27 10:09:23;;;;;;;4.07;1.70;;;;;;;15.25;46.09;101540.97;5019855;28;20299;-71
2023/04/27 10:11:51;;;;;;;4.07;1.90;;;;;;;15.52;45.58;101722.00;5023535;28;20406;-70
2023/04/27 10:14:21;;;;;;;3.57;1.90;;;;;;;15.34;45.86;101751.84;5013834;28;20199;-68
2023/04/27 10:16:51;;;;;;;4.37;2.07;;;;;;;14.68;45.24;101736.13;5018135;28;20276;-69
2023/04/27 10:19:17;;;;;;;3.10;2.20;;;;;;;14.60;46.61;101783.25;5021043;28;20221;-70
2023/04/27 10:21:59;;;;;;;3.93;2.20;;;;;;;14.19;47.90;101813.38;5017888;28;20723;-69
2023/04/27 10:24:41;;;;;;;3.40;2.30;;;;;;;13.56;50.83;101885.72;5027087;28;20670;-71
2023/04/27 10:27:15;;;;;;;4.27;2.67;;;;;;;13.50;51.74;101889.03;5021601;28;20209;-66
2023/04/27 10:29:42;;;;;;;2.63;2.10;;;;;;;13.81;51.68;101901.78;5022042;28;20832;-67
2023/04/27 10:32:12;;;;;;;7.37;2.60;;;;;;;14.10;49.45;101843.22;5018015;28;20207;-68
2023/04/27 10:34:39;;;;;;;2.50;1.83;;;;;;;14.48;47.87;101795.91;5024283;28;20209;-69
2023/04/27 10:37:08;;;;;;;3.13;2.50;;;;;;;14.72;48.62;101801.50;5017403;28;20654;-69
2023/04/27 10:39:37;;;;;;;4.07;2.03;;;;;;;14.60;47.82;101788.41;5025271;28;20214;-68
2023/04/27 10:42:03;;;;;;;2.90;1.70;;;;;;;14.39;48.67;101801.78;5021034;28;20290;-68
2023/04/27 10:44:30;;;;;;;3.27;1.93;;;;;;;14.13;50.00;101846.72;5020890;28;20240;-69
2023/04/27 10:46:58;;;;;;;3.80;1.73;;;;;;;14.00;47.81;101797.50;5019309;28;20254;-67
2023/04/27 10:49:29;;;;;;;2.47;2.10;;;;;;;13.81;47.02;101785.06;5021043;28;20273;-70
2023/04/27 10:51:58;;;;;;;2.63;1.70;;;;;;;14.17;45.75;101767.78;5019302;28;20913;-69
2023/04/27 10:54:27;;;;;;;2.87;1.93;;;;;;;15.28;45.62;101785.28;5023903;28;20574;-70
2023/04/27 10:56:53;;;;;;;1.87;1.47;;;;;;;15.81;44.22;101774.03;5009968;28;20198;-69
2023/04/27 10:59:20;;;;;;;4.03;2.03;;;;;;;15.85;42.73;101779.28;5030924;28;20207;-69
2023/04/27 11:01:48;;;;;;;2.40;1.77;;;;;;;16.33;42.11;101795.38;5023415;28;20867;-69
2023/04/27 11:04:14;;;;;;;1.97;1.67;;;;;;;16.84;41.06;101776.94;5018930;28;20360;-68
2023/04/27 11:06:44;;;;;;;2.53;1.43;;;;;;;16.38;42.50;101808.31;5019094;28;20190;-68
2023/04/27 11:09:10;;;;;;;2.50;1.60;;;;;;;16.16;42.60;101814.13;5021874;28;20222;-69
2023/04/27 11:11:36;;;;;;;4.53;1.80;;;;;;;15.50;44.57;101867.41;5021008;28;20199;-69
2023/04/27 11:14:02;;;;;;;3.63;2.03;;;;;;;15.44;45.29;101873.34;5022743;28;20203;-68
2023/04/27 11:16:28;;;;;;;3.10;2.13;;;;;;;14.91;46.05;101909.34;5022084;28;20210;-68
2023/04/27 11:18:54;;;;;;;2.60;2.00;;;;;;;14.63;46.85;101943.13;5018204;28;20222;-68